sensor_id;sensor_type;location;lat;lon;timestamp;pressure;altitude;pressure_sealevel;temperature;humidity
37132;BME280;23035;50.032;21.978;2023-10-19T00:02:35;65766.59;;;5.67;100.00
37132;BME280;23035;50.032;21.978;2023-10-19T00:07:42;65766.50;;;5.65;100.00
37132;BME280;23035;50.032;21.978;2023-10-19T00:12:47;65701.97;;;5.06;100.00
37132;BME280;23035;50.032;21.978;2023-10-19T00:18:01;65756.88;;;5.56;100.00
37132;BME280;23035;50.032;21.978;2023-10-19T00:23:15;65783.78;;;5.86;100.00
37132;BME280;23035;50.032;21.978;2023-10-19T00:28:21;65710.19;;;5.18;100.00
37132;BME280;23035;50.032;21.978;2023-10-19T00:33:30;65680.81;;;4.90;100.00
37132;BME280;23035;50.032;21.978;2023-10-19T00:38:35;65651.81;;;4.58;100.00
37132;BME280;23035;50.032;21.978;2023-10-19T00:43:54;65654.47;;;4.60;100.00
37132;BME280;23035;50.032;21.978;2023-10-19T00:49:08;65649.03;;;4.53;100.00
37132;BME280;23035;50.032;21.978;2023-10-19T00:54:21;65705.81;;;5.12;100.00
37132;BME280;23035;50.032;21.978;2023-10-19T00:59:30;65724.41;;;5.27;100.00
37132;BME280;23035;50.032;21.978;2023-10-19T01:04:39;65724.94;;;5.28;100.00
37132;BME280;23035;50.032;21.978;2023-10-19T01:09:45;65677.53;;;4.85;100.00
37132;BME280;23035;50.032;21.978;2023-10-19T01:15:06;65677.09;;;4.87;100.00
37132;BME280;23035;50.032;21.978;2023-10-19T01:20:15;65623.41;;;4.28;100.00
37132;BME280;23035;50.032;21.978;2023-10-19T01:25:25;65654.56;;;4.63;100.00
37132;BME280;23035;50.032;21.978;2023-10-19T01:30:38;65640.25;;;4.52;100.00
37132;BME280;23035;50.032;21.978;2023-10-19T01:35:43;65648.16;;;4.57;100.00
37132;BME280;23035;50.032;21.978;2023-10-19T01:41:07;65630.97;;;4.38;100.00
37132;BME280;23035;50.032;21.978;2023-10-19T01:46:17;65701.97;;;5.06;100.00
37132;BME280;23035;50.032;21.978;2023-10-19T01:51:27;65715.84;;;5.19;100.00
37132;BME280;23035;50.032;21.978;2023-10-19T01:56:33;65691.94;;;4.99;100.00
37132;BME280;23035;50.032;21.978;2023-10-19T02:01:39;65702.16;;;5.11;100.00
37132;BME280;23035;50.032;21.978;2023-10-19T02:06:48;65550.97;;;3.62;100.00
37132;BME280;23035;50.032;21.978;2023-10-19T02:11:56;65509.28;;;3.20;100.00
37132;BME280;23035;50.032;21.978;2023-10-19T02:17:01;65615.94;;;4.21;100.00
37132;BME280;23035;50.032;21.978;2023-10-19T02:22:07;65648.69;;;4.57;100.00
37132;BME280;23035;50.032;21.978;2023-10-19T02:27:14;65648.06;;;4.54;100.00
37132;BME280;23035;50.032;21.978;2023-10-19T02:32:36;65669.41;;;4.75;100.00
37132;BME280;23035;50.032;21.978;2023-10-19T02:37:40;65666.94;;;4.77;100.00
37132;BME280;23035;50.032;21.978;2023-10-19T02:42:47;65678.59;;;4.86;100.00
37132;BME280;23035;50.032;21.978;2023-10-19T02:47:52;65590.44;;;3.99;100.00
37132;BME280;23035;50.032;21.978;2023-10-19T02:52:56;65578.78;;;3.91;100.00
37132;BME280;23035;50.032;21.978;2023-10-19T02:58:01;65549.81;;;3.58;100.00
37132;BME280;23035;50.032;21.978;2023-10-19T03:03:08;65547.16;;;3.56;100.00
37132;BME280;23035;50.032;21.978;2023-10-19T03:08:12;65462.81;;;2.73;100.00
37132;BME280;23035;50.032;21.978;2023-10-19T03:13:19;65435.09;;;2.46;100.00
37132;BME280;23035;50.032;21.978;2023-10-19T03:18:23;65392.69;;;2.11;100.00
37132;BME280;23035;50.032;21.978;2023-10-19T03:23:28;65447.56;;;2.63;100.00
37132;BME280;23035;50.032;21.978;2023-10-19T03:28:38;65470.38;;;2.82;100.00
37132;BME280;23035;50.032;21.978;2023-10-19T03:33:44;65433.06;;;2.47;100.00
37132;BME280;23035;50.032;21.978;2023-10-19T03:38:51;65488.69;;;3.05;100.00
37132;BME280;23035;50.032;21.978;2023-10-19T03:43:57;65454.69;;;2.75;100.00
37132;BME280;23035;50.032;21.978;2023-10-19T03:49:01;65428.38;;;2.45;100.00
37132;BME280;23035;50.032;21.978;2023-10-19T03:54:15;65380.97;;;1.99;100.00
37132;BME280;23035;50.032;21.978;2023-10-19T03:59:26;65345.28;;;1.65;100.00
37132;BME280;23035;50.032;21.978;2023-10-19T04:04:33;65366.59;;;1.86;100.00
37132;BME280;23035;50.032;21.978;2023-10-19T04:09:38;65311.75;;;1.33;100.00
37132;BME280;23035;50.032;21.978;2023-10-19T04:15:02;65384.69;;;2.03;100.00
37132;BME280;23035;50.032;21.978;2023-10-19T04:20:16;65365.00;;;1.84;100.00
37132;BME280;23035;50.032;21.978;2023-10-19T04:25:41;65436.81;;;2.50;100.00
37132;BME280;23035;50.032;21.978;2023-10-19T04:30:46;65516.75;;;3.27;100.00
37132;BME280;23035;50.032;21.978;2023-10-19T04:35:52;65391.53;;;2.07;100.00
37132;BME280;23035;50.032;21.978;2023-10-19T04:41:07;65326.78;;;1.50;100.00
37132;BME280;23035;50.032;21.978;2023-10-19T04:46:16;65367.66;;;1.87;100.00
37132;BME280;23035;50.032;21.978;2023-10-19T04:51:24;65380.44;;;1.99;100.00
37132;BME280;23035;50.032;21.978;2023-10-19T04:56:31;65461.50;;;2.79;100.00
37132;BME280;23035;50.032;21.978;2023-10-19T05:01:40;65490.63;;;3.02;100.00
37132;BME280;23035;50.032;21.978;2023-10-19T05:06:50;65473.88;;;2.93;100.00
37132;BME280;23035;50.032;21.978;2023-10-19T05:11:57;65464.50;;;2.77;100.00
37132;BME280;23035;50.032;21.978;2023-10-19T05:17:05;65497.03;;;3.08;100.00
37132;BME280;23035;50.032;21.978;2023-10-19T05:22:14;65519.50;;;3.32;100.00
37132;BME280;23035;50.032;21.978;2023-10-19T05:27:19;65486.91;;;2.98;100.00
37132;BME280;23035;50.032;21.978;2023-10-19T05:32:25;65497.13;;;3.10;100.00
37132;BME280;23035;50.032;21.978;2023-10-19T05:37:29;65503.84;;;3.12;100.00
37132;BME280;23035;50.032;21.978;2023-10-19T05:42:35;65603.34;;;4.14;100.00
37132;BME280;23035;50.032;21.978;2023-10-19T05:47:40;65696.63;;;5.01;100.00
37132;BME280;23035;50.032;21.978;2023-10-19T05:52:45;65728.69;;;5.31;100.00
37132;BME280;23035;50.032;21.978;2023-10-19T05:57:56;65743.09;;;5.45;100.00
37132;BME280;23035;50.032;21.978;2023-10-19T06:03:01;65668.25;;;4.71;100.00
37132;BME280;23035;50.032;21.978;2023-10-19T06:08:08;65640.59;;;4.47;100.00
37132;BME280;23035;50.032;21.978;2023-10-19T06:13:12;65630.66;;;4.43;100.00
37132;BME280;23035;50.032;21.978;2023-10-19T06:18:18;65609.09;;;4.17;100.00
37132;BME280;23035;50.032;21.978;2023-10-19T06:23:22;65575.59;;;3.88;100.00
37132;BME280;23035;50.032;21.978;2023-10-19T06:28:26;65668.44;;;4.76;100.00
37132;BME280;23035;50.032;21.978;2023-10-19T06:33:32;65691.84;;;4.96;100.00
37132;BME280;23035;50.032;21.978;2023-10-19T06:38:36;65738.72;;;5.38;100.00
37132;BME280;23035;50.032;21.978;2023-10-19T06:43:41;65813.13;;;6.12;100.00
37132;BME280;23035;50.032;21.978;2023-10-19T06:48:46;65812.66;;;6.14;100.00
37132;BME280;23035;50.032;21.978;2023-10-19T06:53:50;65885.38;;;6.83;100.00
37132;BME280;23035;50.032;21.978;2023-10-19T06:58:54;65893.38;;;6.90;100.00
37132;BME280;23035;50.032;21.978;2023-10-19T07:04:00;65901.22;;;6.93;100.00
37132;BME280;23035;50.032;21.978;2023-10-19T07:09:04;65993.78;;;7.81;100.00
37132;BME280;23035;50.032;21.978;2023-10-19T07:14:08;65981.75;;;7.77;100.00
37132;BME280;23035;50.032;21.978;2023-10-19T07:19:14;65979.34;;;7.67;100.00
37132;BME280;23035;50.032;21.978;2023-10-19T07:24:18;66006.28;;;7.98;100.00
37132;BME280;23035;50.032;21.978;2023-10-19T07:29:26;65997.34;;;7.94;100.00
37132;BME280;23035;50.032;21.978;2023-10-19T07:34:33;65928.41;;;7.16;100.00
37132;BME280;23035;50.032;21.978;2023-10-19T07:39:37;65939.47;;;7.37;100.00
37132;BME280;23035;50.032;21.978;2023-10-19T07:44:45;65931.25;;;7.24;100.00
37132;BME280;23035;50.032;21.978;2023-10-19T07:49:50;65978.88;;;7.69;100.00
37132;BME280;23035;50.032;21.978;2023-10-19T07:54:57;66035.59;;;8.23;100.00
37132;BME280;23035;50.032;21.978;2023-10-19T08:00:01;66042.03;;;8.29;100.00
37132;BME280;23035;50.032;21.978;2023-10-19T08:05:09;66044.19;;;8.31;100.00
37132;BME280;23035;50.032;21.978;2023-10-19T08:10:15;65984.22;;;7.74;100.00
37132;BME280;23035;50.032;21.978;2023-10-19T08:15:20;66073.72;;;8.62;100.00
37132;BME280;23035;50.032;21.978;2023-10-19T08:20:26;66158.81;;;9.40;100.00
37132;BME280;23035;50.032;21.978;2023-10-19T08:25:34;66238.22;;;10.18;100.00
37132;BME280;23035;50.032;21.978;2023-10-19T08:30:58;66353.56;;;11.28;100.00
37132;BME280;23035;50.032;21.978;2023-10-19T08:36:05;66514.56;;;12.78;87.64
37132;BME280;23035;50.032;21.978;2023-10-19T08:41:09;66551.19;;;13.15;80.54
37132;BME280;23035;50.032;21.978;2023-10-19T08:46:14;66631.84;;;13.91;76.75
37132;BME280;23035;50.032;21.978;2023-10-19T08:51:20;66655.44;;;14.11;71.87
37132;BME280;23035;50.032;21.978;2023-10-19T08:56:24;66618.94;;;13.79;73.83
37132;BME280;23035;50.032;21.978;2023-10-19T09:01:30;66610.94;;;13.74;76.24
37132;BME280;23035;50.032;21.978;2023-10-19T09:06:36;66651.28;;;14.12;74.77
37132;BME280;23035;50.032;21.978;2023-10-19T09:11:44;66598.34;;;13.55;75.94
37132;BME280;23035;50.032;21.978;2023-10-19T09:16:55;66610.19;;;13.66;77.28
37132;BME280;23035;50.032;21.978;2023-10-19T09:22:02;66626.94;;;13.84;79.19
37132;BME280;23035;50.032;21.978;2023-10-19T09:27:10;66645.22;;;14.01;77.91
37132;BME280;23035;50.032;21.978;2023-10-19T09:32:15;66709.31;;;14.64;76.93
37132;BME280;23035;50.032;21.978;2023-10-19T09:37:21;66688.25;;;14.42;77.87
37132;BME280;23035;50.032;21.978;2023-10-19T09:42:28;66702.88;;;14.58;77.32
37132;BME280;23035;50.032;21.978;2023-10-19T09:47:35;66681.25;;;14.35;79.69
37132;BME280;23035;50.032;21.978;2023-10-19T09:52:42;66720.63;;;14.75;79.92
37132;BME280;23035;50.032;21.978;2023-10-19T09:57:48;66752.81;;;15.03;78.38
37132;BME280;23035;50.032;21.978;2023-10-19T10:02:55;66804.59;;;15.55;77.71
37132;BME280;23035;50.032;21.978;2023-10-19T10:08:31;66788.81;;;15.35;78.94
37132;BME280;23035;50.032;21.978;2023-10-19T10:13:36;66706.09;;;14.61;81.25
37132;BME280;23035;50.032;21.978;2023-10-19T10:18:41;66825.59;;;15.74;78.90
37132;BME280;23035;50.032;21.978;2023-10-19T10:23:49;66743.13;;;14.94;80.50
37132;BME280;23035;50.032;21.978;2023-10-19T10:29:08;66821.28;;;15.70;79.34
37132;BME280;23035;50.032;21.978;2023-10-19T10:34:42;66841.81;;;15.92;79.91
37132;BME280;23035;50.032;21.978;2023-10-19T10:39:47;66865.59;;;16.17;77.64
37132;BME280;23035;50.032;21.978;2023-10-19T10:44:52;66784.13;;;15.35;83.83
37132;BME280;23035;50.032;21.978;2023-10-19T10:49:59;66779.72;;;15.29;82.69
37132;BME280;23035;50.032;21.978;2023-10-19T10:55:10;66695.19;;;14.46;86.79
37132;BME280;23035;50.032;21.978;2023-10-19T11:00:15;66673.19;;;14.28;90.52
37132;BME280;23035;50.032;21.978;2023-10-19T11:05:21;66608.81;;;13.72;95.44
37132;BME280;23035;50.032;21.978;2023-10-19T11:10:28;66710.41;;;14.66;91.19
37132;BME280;23035;50.032;21.978;2023-10-19T11:15:33;66674.41;;;14.34;91.15
37132;BME280;23035;50.032;21.978;2023-10-19T11:20:38;66614.56;;;13.72;96.49
37132;BME280;23035;50.032;21.978;2023-10-19T11:25:43;66674.25;;;14.29;94.82
37132;BME280;23035;50.032;21.978;2023-10-19T11:30:47;66744.75;;;14.96;88.91
37132;BME280;23035;50.032;21.978;2023-10-19T11:35:52;66659.66;;;14.13;94.90
37132;BME280;23035;50.032;21.978;2023-10-19T11:40:57;66692.72;;;14.51;92.25
37132;BME280;23035;50.032;21.978;2023-10-19T11:46:01;66654.97;;;14.13;96.69
37132;BME280;23035;50.032;21.978;2023-10-19T11:51:07;66627.56;;;13.87;100.00
37132;BME280;23035;50.032;21.978;2023-10-19T11:56:15;66599.59;;;13.61;100.00
37132;BME280;23035;50.032;21.978;2023-10-19T12:01:19;66559.75;;;13.20;100.00
37132;BME280;23035;50.032;21.978;2023-10-19T12:06:23;66591.44;;;13.51;100.00
37132;BME280;23035;50.032;21.978;2023-10-19T12:11:29;66608.66;;;13.67;100.00
37132;BME280;23035;50.032;21.978;2023-10-19T12:16:33;66616.63;;;13.72;100.00
37132;BME280;23035;50.032;21.978;2023-10-19T12:21:37;66565.28;;;13.31;100.00
37132;BME280;23035;50.032;21.978;2023-10-19T12:26:45;66518.34;;;12.81;100.00
37132;BME280;23035;50.032;21.978;2023-10-19T12:31:49;66507.59;;;12.71;100.00
37132;BME280;23035;50.032;21.978;2023-10-19T12:36:53;66529.09;;;12.91;100.00
37132;BME280;23035;50.032;21.978;2023-10-19T12:42:01;66533.91;;;12.96;100.00
37132;BME280;23035;50.032;21.978;2023-10-19T12:47:10;66545.91;;;13.12;100.00
37132;BME280;23035;50.032;21.978;2023-10-19T12:52:15;66557.66;;;13.21;100.00
37132;BME280;23035;50.032;21.978;2023-10-19T12:57:21;66509.34;;;12.78;100.00
37132;BME280;23035;50.032;21.978;2023-10-19T13:02:26;66566.28;;;13.29;100.00
37132;BME280;23035;50.032;21.978;2023-10-19T13:07:33;66642.69;;;14.04;100.00
37132;BME280;23035;50.032;21.978;2023-10-19T13:12:39;66607.03;;;13.65;100.00
37132;BME280;23035;50.032;21.978;2023-10-19T13:17:47;66583.00;;;13.47;100.00
37132;BME280;23035;50.032;21.978;2023-10-19T13:22:52;66559.88;;;13.26;100.00
37132;BME280;23035;50.032;21.978;2023-10-19T13:27:57;66609.28;;;13.70;100.00
37132;BME280;23035;50.032;21.978;2023-10-19T13:33:01;66560.28;;;13.21;100.00
37132;BME280;23035;50.032;21.978;2023-10-19T13:38:08;66553.81;;;13.15;100.00
37132;BME280;23035;50.032;21.978;2023-10-19T13:43:15;66541.91;;;13.01;100.00
37132;BME280;23035;50.032;21.978;2023-10-19T13:48:20;66455.66;;;12.27;100.00
37132;BME280;23035;50.032;21.978;2023-10-19T13:53:26;66486.72;;;12.54;100.00
37132;BME280;23035;50.032;21.978;2023-10-19T13:58:31;66505.91;;;12.67;100.00
37132;BME280;23035;50.032;21.978;2023-10-19T14:03:36;66442.63;;;12.10;100.00
37132;BME280;23035;50.032;21.978;2023-10-19T14:08:41;66442.69;;;12.12;100.00
37132;BME280;23035;50.032;21.978;2023-10-19T14:13:47;66336.84;;;11.09;100.00
37132;BME280;23035;50.032;21.978;2023-10-19T14:18:53;66377.81;;;11.53;100.00
37132;BME280;23035;50.032;21.978;2023-10-19T14:24:01;66393.28;;;11.65;100.00
37132;BME280;23035;50.032;21.978;2023-10-19T14:29:06;66341.16;;;11.13;100.00
37132;BME280;23035;50.032;21.978;2023-10-19T14:34:10;66383.69;;;11.59;100.00
37132;BME280;23035;50.032;21.978;2023-10-19T14:39:14;66368.13;;;11.44;100.00
37132;BME280;23035;50.032;21.978;2023-10-19T14:44:24;66329.34;;;11.02;100.00
37132;BME280;23035;50.032;21.978;2023-10-19T14:49:30;66369.22;;;11.45;100.00
37132;BME280;23035;50.032;21.978;2023-10-19T14:54:35;66395.88;;;11.65;100.00
37132;BME280;23035;50.032;21.978;2023-10-19T14:59:41;66383.00;;;11.53;100.00
37132;BME280;23035;50.032;21.978;2023-10-19T15:04:47;66415.84;;;11.87;100.00
37132;BME280;23035;50.032;21.978;2023-10-19T15:09:51;66412.63;;;11.84;100.00
37132;BME280;23035;50.032;21.978;2023-10-19T15:14:57;66334.25;;;11.09;100.00
37132;BME280;23035;50.032;21.978;2023-10-19T15:20:03;66355.16;;;11.29;100.00
37132;BME280;23035;50.032;21.978;2023-10-19T15:25:09;66400.81;;;11.72;100.00
37132;BME280;23035;50.032;21.978;2023-10-19T15:30:15;66338.56;;;11.13;100.00
37132;BME280;23035;50.032;21.978;2023-10-19T15:35:20;66378.78;;;11.52;100.00
37132;BME280;23035;50.032;21.978;2023-10-19T15:40:25;66365.13;;;11.31;100.00
37132;BME280;23035;50.032;21.978;2023-10-19T15:45:33;66385.22;;;11.58;100.00
37132;BME280;23035;50.032;21.978;2023-10-19T15:50:40;66428.09;;;11.96;100.00
37132;BME280;23035;50.032;21.978;2023-10-19T15:55:44;66411.03;;;11.82;100.00
37132;BME280;23035;50.032;21.978;2023-10-19T16:00:51;66368.41;;;11.37;100.00
37132;BME280;23035;50.032;21.978;2023-10-19T16:05:56;66445.38;;;12.15;100.00
37132;BME280;23035;50.032;21.978;2023-10-19T16:11:02;66368.69;;;11.44;100.00
37132;BME280;23035;50.032;21.978;2023-10-19T16:16:08;66408.22;;;11.77;100.00
37132;BME280;23035;50.032;21.978;2023-10-19T16:21:14;66409.84;;;11.78;100.00
37132;BME280;23035;50.032;21.978;2023-10-19T16:26:18;66391.59;;;11.61;100.00
37132;BME280;23035;50.032;21.978;2023-10-19T16:31:24;66360.47;;;11.32;100.00
37132;BME280;23035;50.032;21.978;2023-10-19T16:36:28;66385.16;;;11.55;100.00
37132;BME280;23035;50.032;21.978;2023-10-19T16:41:32;66349.28;;;11.24;100.00
37132;BME280;23035;50.032;21.978;2023-10-19T16:46:38;66360.63;;;11.37;100.00
37132;BME280;23035;50.032;21.978;2023-10-19T16:51:43;66350.97;;;11.28;100.00
37132;BME280;23035;50.032;21.978;2023-10-19T16:56:47;66352.50;;;11.27;100.00
37132;BME280;23035;50.032;21.978;2023-10-19T17:01:55;66358.22;;;11.27;100.00
37132;BME280;23035;50.032;21.978;2023-10-19T17:06:59;66373.34;;;11.44;100.00
37132;BME280;23035;50.032;21.978;2023-10-19T17:12:03;66403.94;;;11.73;100.00
37132;BME280;23035;50.032;21.978;2023-10-19T17:17:09;66399.09;;;11.68;100.00
37132;BME280;23035;50.032;21.978;2023-10-19T17:22:13;66429.25;;;11.99;100.00
37132;BME280;23035;50.032;21.978;2023-10-19T17:27:17;66349.28;;;11.24;100.00
37132;BME280;23035;50.032;21.978;2023-10-19T17:32:22;66379.34;;;11.52;100.00
37132;BME280;23035;50.032;21.978;2023-10-19T17:37:27;66398.19;;;11.72;100.00
37132;BME280;23035;50.032;21.978;2023-10-19T17:42:31;66408.41;;;11.82;100.00
37132;BME280;23035;50.032;21.978;2023-10-19T17:47:37;66446.38;;;12.13;100.00
37132;BME280;23035;50.032;21.978;2023-10-19T17:52:41;66474.31;;;12.40;100.00
37132;BME280;23035;50.032;21.978;2023-10-19T17:57:48;66453.91;;;12.20;100.00
37132;BME280;23035;50.032;21.978;2023-10-19T18:02:53;66462.03;;;12.30;100.00
37132;BME280;23035;50.032;21.978;2023-10-19T18:07:59;66479.06;;;12.42;100.00
37132;BME280;23035;50.032;21.978;2023-10-19T18:13:03;66359.56;;;11.36;100.00
37132;BME280;23035;50.032;21.978;2023-10-19T18:18:08;66356.78;;;11.31;100.00
37132;BME280;23035;50.032;21.978;2023-10-19T18:23:13;66408.75;;;11.77;100.00
37132;BME280;23035;50.032;21.978;2023-10-19T18:28:18;66324.59;;;11.00;100.00
37132;BME280;23035;50.032;21.978;2023-10-19T18:33:23;66367.53;;;11.41;100.00
37132;BME280;23035;50.032;21.978;2023-10-19T18:38:27;66357.78;;;11.29;100.00
37132;BME280;23035;50.032;21.978;2023-10-19T18:43:31;66364.75;;;11.36;100.00
37132;BME280;23035;50.032;21.978;2023-10-19T18:48:36;66368.97;;;11.37;100.00
37132;BME280;23035;50.032;21.978;2023-10-19T18:53:40;66359.84;;;11.29;100.00
37132;BME280;23035;50.032;21.978;2023-10-19T18:58:44;66334.78;;;11.10;100.00
37132;BME280;23035;50.032;21.978;2023-10-19T19:03:49;66318.63;;;10.92;100.00
37132;BME280;23035;50.032;21.978;2023-10-19T19:08:53;66401.25;;;11.70;100.00
37132;BME280;23035;50.032;21.978;2023-10-19T19:13:57;66421.06;;;11.87;100.00
37132;BME280;23035;50.032;21.978;2023-10-19T19:19:02;66397.75;;;11.74;100.00
37132;BME280;23035;50.032;21.978;2023-10-19T19:24:07;66367.44;;;11.38;100.00
37132;BME280;23035;50.032;21.978;2023-10-19T19:29:10;66368.13;;;11.44;100.00
37132;BME280;23035;50.032;21.978;2023-10-19T19:34:16;66362.75;;;11.39;100.00
37132;BME280;23035;50.032;21.978;2023-10-19T19:39:21;66387.47;;;11.62;100.00
37132;BME280;23035;50.032;21.978;2023-10-19T19:44:26;66396.34;;;11.63;100.00
37132;BME280;23035;50.032;21.978;2023-10-19T19:49:33;66373.34;;;11.44;100.00
37132;BME280;23035;50.032;21.978;2023-10-19T19:54:37;66392.66;;;11.62;100.00
37132;BME280;23035;50.032;21.978;2023-10-19T19:59:41;66352.94;;;11.25;100.00
37132;BME280;23035;50.032;21.978;2023-10-19T20:04:46;66379.22;;;11.49;100.00
37132;BME280;23035;50.032;21.978;2023-10-19T20:09:51;66339.09;;;11.14;100.00
37132;BME280;23035;50.032;21.978;2023-10-19T20:14:55;66322.00;;;11.00;100.00
37132;BME280;23035;50.032;21.978;2023-10-19T20:20:01;66400.34;;;11.74;100.00
37132;BME280;23035;50.032;21.978;2023-10-19T20:25:10;66416.38;;;11.87;100.00
37132;BME280;23035;50.032;21.978;2023-10-19T20:30:15;66470.59;;;12.39;100.00
37132;BME280;23035;50.032;21.978;2023-10-19T20:35:20;66464.63;;;12.30;100.00
37132;BME280;23035;50.032;21.978;2023-10-19T20:40:25;66427.66;;;11.98;100.00
37132;BME280;23035;50.032;21.978;2023-10-19T20:45:33;66473.31;;;12.41;100.00
37132;BME280;23035;50.032;21.978;2023-10-19T20:50:38;66470.00;;;12.35;100.00
37132;BME280;23035;50.032;21.978;2023-10-19T20:55:42;66408.88;;;11.80;100.00
37132;BME280;23035;50.032;21.978;2023-10-19T21:00:47;66431.97;;;12.02;100.00
37132;BME280;23035;50.032;21.978;2023-10-19T21:05:52;66424.50;;;11.97;100.00
37132;BME280;23035;50.032;21.978;2023-10-19T21:10:56;66410.03;;;11.84;100.00
37132;BME280;23035;50.032;21.978;2023-10-19T21:16:00;66385.75;;;11.58;100.00
37132;BME280;23035;50.032;21.978;2023-10-19T21:21:08;66396.41;;;11.66;100.00
37132;BME280;23035;50.032;21.978;2023-10-19T21:26:12;66389.00;;;11.61;100.00
37132;BME280;23035;50.032;21.978;2023-10-19T21:31:16;66461.56;;;12.32;100.00
37132;BME280;23035;50.032;21.978;2023-10-19T21:36:22;66352.94;;;11.25;100.00
37132;BME280;23035;50.032;21.978;2023-10-19T21:41:27;66317.09;;;10.93;100.00
37132;BME280;23035;50.032;21.978;2023-10-19T21:46:31;66398.75;;;11.73;100.00
37132;BME280;23035;50.032;21.978;2023-10-19T21:51:36;66397.50;;;11.67;100.00
37132;BME280;23035;50.032;21.978;2023-10-19T21:56:40;66304.66;;;10.79;100.00
37132;BME280;23035;50.032;21.978;2023-10-19T22:01:44;66354.09;;;11.28;100.00
37132;BME280;23035;50.032;21.978;2023-10-19T22:06:50;66328.88;;;11.04;100.00
37132;BME280;23035;50.032;21.978;2023-10-19T22:11:54;66358.84;;;11.30;100.00
37132;BME280;23035;50.032;21.978;2023-10-19T22:16:58;66450.13;;;12.17;100.00
37132;BME280;23035;50.032;21.978;2023-10-19T22:22:04;66493.72;;;12.60;100.00
37132;BME280;23035;50.032;21.978;2023-10-19T22:27:09;66460.31;;;12.26;100.00
37132;BME280;23035;50.032;21.978;2023-10-19T22:32:12;66436.16;;;12.03;100.00
37132;BME280;23035;50.032;21.978;2023-10-19T22:37:18;66470.00;;;12.35;100.00
37132;BME280;23035;50.032;21.978;2023-10-19T22:42:22;66534.00;;;12.99;100.00
37132;BME280;23035;50.032;21.978;2023-10-19T22:47:26;66545.91;;;13.12;100.00
37132;BME280;23035;50.032;21.978;2023-10-19T22:52:34;66544.66;;;13.06;100.00
37132;BME280;23035;50.032;21.978;2023-10-19T22:57:38;66486.19;;;12.53;100.00
37132;BME280;23035;50.032;21.978;2023-10-19T23:02:43;66447.97;;;12.15;100.00
37132;BME280;23035;50.032;21.978;2023-10-19T23:07:49;66454.97;;;12.21;100.00
37132;BME280;23035;50.032;21.978;2023-10-19T23:12:55;66436.25;;;12.06;100.00
37132;BME280;23035;50.032;21.978;2023-10-19T23:18:00;66432.50;;;12.02;100.00
37132;BME280;23035;50.032;21.978;2023-10-19T23:23:07;66506.00;;;12.70;100.00
37132;BME280;23035;50.032;21.978;2023-10-19T23:28:14;66513.75;;;12.84;100.00
37132;BME280;23035;50.032;21.978;2023-10-19T23:33:17;66563.56;;;13.27;100.00
37132;BME280;23035;50.032;21.978;2023-10-19T23:38:23;66560.81;;;13.22;100.00
37132;BME280;23035;50.032;21.978;2023-10-19T23:43:27;66526.31;;;12.86;100.00
37132;BME280;23035;50.032;21.978;2023-10-19T23:48:33;66578.09;;;13.40;100.00
37132;BME280;23035;50.032;21.978;2023-10-19T23:53:38;66567.28;;;13.28;100.00
37132;BME280;23035;50.032;21.978;2023-10-19T23:58:43;66570.50;;;13.31;100.00
